sensor_id;sensor_type;location;lat;lon;timestamp;temperature;humidity
5828;DHT22;42583;50.240;8.444;2022-11-15T00:00:28;9.90;99.90
5828;DHT22;42583;50.240;8.444;2022-11-15T00:15:29;9.80;99.90
5828;DHT22;42583;50.240;8.444;2022-11-15T00:30:30;9.80;99.90
5828;DHT22;42583;50.240;8.444;2022-11-15T00:45:30;9.80;99.90
5828;DHT22;42583;50.240;8.444;2022-11-15T01:00:31;9.90;99.90
5828;DHT22;42583;50.240;8.444;2022-11-15T01:15:31;10.00;99.90
5828;DHT22;42583;50.240;8.444;2022-11-15T01:30:32;10.00;99.90
5828;DHT22;42583;50.240;8.444;2022-11-15T01:45:32;10.00;99.90
5828;DHT22;42583;50.240;8.444;2022-11-15T02:00:33;10.10;99.90
5828;DHT22;42583;50.240;8.444;2022-11-15T02:15:40;10.10;99.90
5828;DHT22;42583;50.240;8.444;2022-11-15T02:30:48;10.10;99.90
5828;DHT22;42583;50.240;8.444;2022-11-15T02:45:58;10.00;99.90
5828;DHT22;42583;50.240;8.444;2022-11-15T03:16:20;9.80;99.90
5828;DHT22;42583;50.240;8.444;2022-11-15T03:31:28;9.70;99.90
5828;DHT22;42583;50.240;8.444;2022-11-15T03:47:00;9.60;99.90
5828;DHT22;42583;50.240;8.444;2022-11-15T04:02:03;9.60;99.90
5828;DHT22;42583;50.240;8.444;2022-11-15T04:17:04;9.60;99.90
5828;DHT22;42583;50.240;8.444;2022-11-15T04:32:06;9.70;99.90
5828;DHT22;42583;50.240;8.444;2022-11-15T04:47:06;9.90;99.90
5828;DHT22;42583;50.240;8.444;2022-11-15T05:02:07;9.90;99.90
5828;DHT22;42583;50.240;8.444;2022-11-15T05:17:07;10.00;99.90
5828;DHT22;42583;50.240;8.444;2022-11-15T05:32:09;10.10;99.90
5828;DHT22;42583;50.240;8.444;2022-11-15T05:47:12;10.10;99.90
5828;DHT22;42583;50.240;8.444;2022-11-15T06:02:14;10.20;99.90
5828;DHT22;42583;50.240;8.444;2022-11-15T06:17:14;10.20;99.90
5828;DHT22;42583;50.240;8.444;2022-11-15T06:32:15;10.20;99.90
5828;DHT22;42583;50.240;8.444;2022-11-15T06:47:15;10.10;99.90
5828;DHT22;42583;50.240;8.444;2022-11-15T07:02:16;10.00;99.90
5828;DHT22;42583;50.240;8.444;2022-11-15T07:17:16;9.90;99.90
5828;DHT22;42583;50.240;8.444;2022-11-15T07:32:18;9.90;99.90
5828;DHT22;42583;50.240;8.444;2022-11-15T07:47:19;9.90;99.90
5828;DHT22;42583;50.240;8.444;2022-11-15T08:02:19;10.00;99.90
5828;DHT22;42583;50.240;8.444;2022-11-15T08:17:20;10.10;99.90
5828;DHT22;42583;50.240;8.444;2022-11-15T08:32:20;10.20;99.90
5828;DHT22;42583;50.240;8.444;2022-11-15T08:47:21;10.20;99.90
5828;DHT22;42583;50.240;8.444;2022-11-15T09:02:22;10.20;99.90
5828;DHT22;42583;50.240;8.444;2022-11-15T09:17:23;10.10;99.90
5828;DHT22;42583;50.240;8.444;2022-11-15T09:32:23;10.20;99.90
5828;DHT22;42583;50.240;8.444;2022-11-15T10:03:09;10.30;99.90
5828;DHT22;42583;50.240;8.444;2022-11-15T10:18:33;10.40;99.90
5828;DHT22;42583;50.240;8.444;2022-11-15T10:33:37;10.60;99.90
5828;DHT22;42583;50.240;8.444;2022-11-15T10:48:38;10.70;99.90
5828;DHT22;42583;50.240;8.444;2022-11-15T11:03:39;11.10;99.90
5828;DHT22;42583;50.240;8.444;2022-11-15T11:19:16;11.50;99.90
5828;DHT22;42583;50.240;8.444;2022-11-15T11:50:10;15.40;99.90
5828;DHT22;42583;50.240;8.444;2022-11-15T12:05:32;16.80;96.10
5828;DHT22;42583;50.240;8.444;2022-11-15T12:20:40;14.00;95.50
5828;DHT22;42583;50.240;8.444;2022-11-15T12:35:42;12.70;99.90
5828;DHT22;42583;50.240;8.444;2022-11-15T13:05:58;11.70;99.90
5828;DHT22;42583;50.240;8.444;2022-11-15T13:20:59;11.40;99.90
5828;DHT22;42583;50.240;8.444;2022-11-15T13:36:13;11.20;99.90
5828;DHT22;42583;50.240;8.444;2022-11-15T13:51:20;11.20;99.90
5828;DHT22;42583;50.240;8.444;2022-11-15T14:06:23;10.90;99.90
5828;DHT22;42583;50.240;8.444;2022-11-15T14:21:24;10.80;99.90
5828;DHT22;42583;50.240;8.444;2022-11-15T14:36:25;10.70;99.90
5828;DHT22;42583;50.240;8.444;2022-11-15T14:51:26;10.60;99.90
5828;DHT22;42583;50.240;8.444;2022-11-15T15:06:26;10.50;99.90
5828;DHT22;42583;50.240;8.444;2022-11-15T15:21:27;10.40;99.90
5828;DHT22;42583;50.240;8.444;2022-11-15T15:36:28;10.30;99.90
5828;DHT22;42583;50.240;8.444;2022-11-15T15:51:29;10.30;99.90
5828;DHT22;42583;50.240;8.444;2022-11-15T16:06:36;10.30;99.90
5828;DHT22;42583;50.240;8.444;2022-11-15T16:21:36;10.40;99.90
5828;DHT22;42583;50.240;8.444;2022-11-15T16:36:37;10.50;99.90
5828;DHT22;42583;50.240;8.444;2022-11-15T16:51:37;10.60;99.90
5828;DHT22;42583;50.240;8.444;2022-11-15T17:06:39;10.60;99.90
5828;DHT22;42583;50.240;8.444;2022-11-15T17:21:42;10.70;99.90
5828;DHT22;42583;50.240;8.444;2022-11-15T17:36:42;10.70;99.90
5828;DHT22;42583;50.240;8.444;2022-11-15T17:51:43;10.80;99.90
5828;DHT22;42583;50.240;8.444;2022-11-15T18:06:43;10.80;99.90
5828;DHT22;42583;50.240;8.444;2022-11-15T18:21:44;10.80;99.90
5828;DHT22;42583;50.240;8.444;2022-11-15T18:36:59;10.80;99.90
5828;DHT22;42583;50.240;8.444;2022-11-15T18:52:00;10.90;99.90
5828;DHT22;42583;50.240;8.444;2022-11-15T19:07:00;10.90;99.90
5828;DHT22;42583;50.240;8.444;2022-11-15T19:22:01;10.90;99.90
5828;DHT22;42583;50.240;8.444;2022-11-15T19:37:02;10.90;99.90
5828;DHT22;42583;50.240;8.444;2022-11-15T19:52:02;10.80;99.90
5828;DHT22;42583;50.240;8.444;2022-11-15T20:07:03;10.90;99.90
5828;DHT22;42583;50.240;8.444;2022-11-15T20:22:03;10.90;99.90
5828;DHT22;42583;50.240;8.444;2022-11-15T20:37:04;10.90;99.90
5828;DHT22;42583;50.240;8.444;2022-11-15T20:52:04;10.80;99.90
5828;DHT22;42583;50.240;8.444;2022-11-15T21:07:05;10.80;99.90
5828;DHT22;42583;50.240;8.444;2022-11-15T21:22:06;10.80;99.90
5828;DHT22;42583;50.240;8.444;2022-11-15T21:37:09;10.80;99.90
5828;DHT22;42583;50.240;8.444;2022-11-15T21:52:10;10.80;99.90
5828;DHT22;42583;50.240;8.444;2022-11-15T22:07:10;10.90;99.90
5828;DHT22;42583;50.240;8.444;2022-11-15T22:22:11;10.70;99.90
5828;DHT22;42583;50.240;8.444;2022-11-15T22:37:11;10.50;99.90
5828;DHT22;42583;50.240;8.444;2022-11-15T22:52:12;10.50;99.90
5828;DHT22;42583;50.240;8.444;2022-11-15T23:07:13;10.40;99.90
5828;DHT22;42583;50.240;8.444;2022-11-15T23:22:13;10.30;99.90
5828;DHT22;42583;50.240;8.444;2022-11-15T23:37:32;10.30;99.90
5828;DHT22;42583;50.240;8.444;2022-11-15T23:52:33;10.30;99.90
